Main page
METAR-TAF:

METAR-TAF

Airports :

Bobo Dioulasso Airport

Bobo-Dioulasso, Burkina Faso

latitude: 11-10N, longitude: 004-19W, elevation: 460 m

Current weather observation

The report was made 1 hour and 3 minutes ago, at 06:00 UTC
Calm wind
Temperature 20°C
Humidity 49%
Pressure 1012 hPa
Visibility: 8000 m

METAR: DFOO 080600Z 00000KT 8000 NSC 20/09 Q1012

Time: 07:03 (07:03 UTC)

Forecast

The report was made 2 hours and 3 minutes ago, at 05:00 UTC
Forecast valid from 08 at 06 UTC to 09 at 06 UTC
Wind 10 kt from the East/Southeast
Visibility: 8000 m
Temporary
from 08 at 06 UTC to 08 at 10 UTC
Visibility: 3500 m
haze
Temporary
from 08 at 17 UTC to 08 at 20 UTC
Visibility: 4000 m
haze

TAF: DFOO 080500Z 0806/0906 12010KT 8000 NSC TEMPO 0806/0810 3500 HZ TEMPO 0817/0820 4000 HZ

Weather observations and forecasts of more than 4000 airports (METAR and TAF reports).

The available stations are represented by yellow and red dots on the map.

Hover mouse over dot to see the name of the station.

Then click to see weather observations and forecasts.

To change the map : click on the green buttons with a black cross to zoom in, on the green button with a dash to zoom out, or on the green arrows for adjacent maps.


METAR-TAF: